<?xml version="1.0" encoding="UTF-8" standalone="no" ?>
<gpx xmlns="http://www.topografix.com/GPX/1/1" xmlns:xsi="http://www.w3.org/2001/XMLSchema-instance" xsi:schemaLocation="http://www.topografix.com/GPX/1/1 http://www.topografix.com/GPX/1/1/gpx.xsd" version="1.1" creator="VisuGPX - https://www.visugpx.com">
  <metadata>
    <name>13620236-Saint Paul de Vezelin</name>
  </metadata>
  <trk>
    <name><![CDATA[13620236-Saint Paul de Vezelin]]></name>
    <trkseg>
      <trkpt lat="45.88437" lon="4.08497">
        <ele>423</ele>
        <time>2021-08-27T10:45:35Z</time>
      </trkpt>
      <trkpt lat="45.88443" lon="4.08309">
        <ele>423</ele>
        <time>2021-08-27T10:48:30Z</time>
      </trkpt>
      <trkpt lat="45.88419" lon="4.08257">
        <ele>420</ele>
        <time>2021-08-27T10:49:28Z</time>
      </trkpt>
      <trkpt lat="45.88404" lon="4.08055">
        <ele>403</ele>
        <time>2021-08-27T10:52:36Z</time>
      </trkpt>
      <trkpt lat="45.88362" lon="4.08038">
        <ele>397</ele>
        <time>2021-08-27T10:53:35Z</time>
      </trkpt>
      <trkpt lat="45.88395" lon="4.07991">
        <ele>395</ele>
        <time>2021-08-27T10:54:37Z</time>
      </trkpt>
      <trkpt lat="45.88356" lon="4.07828">
        <ele>392</ele>
        <time>2021-08-27T10:57:17Z</time>
      </trkpt>
      <trkpt lat="45.88356" lon="4.07755">
        <ele>392</ele>
        <time>2021-08-27T10:58:25Z</time>
      </trkpt>
      <trkpt lat="45.88222" lon="4.0763">
        <ele>403</ele>
        <time>2021-08-27T11:01:58Z</time>
      </trkpt>
      <trkpt lat="45.88141" lon="4.07506">
        <ele>410</ele>
        <time>2021-08-27T11:04:36Z</time>
      </trkpt>
      <trkpt lat="45.88087" lon="4.07386">
        <ele>411</ele>
        <time>2021-08-27T11:06:49Z</time>
      </trkpt>
      <trkpt lat="45.88025" lon="4.07223">
        <ele>408</ele>
        <time>2021-08-27T11:09:41Z</time>
      </trkpt>
      <trkpt lat="45.88028" lon="4.07141">
        <ele>409</ele>
        <time>2021-08-27T11:10:57Z</time>
      </trkpt>
      <trkpt lat="45.88144" lon="4.07081">
        <ele>421</ele>
        <time>2021-08-27T11:13:42Z</time>
      </trkpt>
      <trkpt lat="45.8818" lon="4.06995">
        <ele>421</ele>
        <time>2021-08-27T11:15:15Z</time>
      </trkpt>
      <trkpt lat="45.88228" lon="4.06961">
        <ele>423</ele>
        <time>2021-08-27T11:16:27Z</time>
      </trkpt>
      <trkpt lat="45.88317" lon="4.06759">
        <ele>428</ele>
        <time>2021-08-27T11:20:09Z</time>
      </trkpt>
      <trkpt lat="45.88383" lon="4.066">
        <ele>431</ele>
        <time>2021-08-27T11:23:01Z</time>
      </trkpt>
      <trkpt lat="45.8847" lon="4.06429">
        <ele>425</ele>
        <time>2021-08-27T11:26:17Z</time>
      </trkpt>
      <trkpt lat="45.8853" lon="4.06339">
        <ele>424</ele>
        <time>2021-08-27T11:28:13Z</time>
      </trkpt>
      <trkpt lat="45.88637" lon="4.06227">
        <ele>427</ele>
        <time>2021-08-27T11:31:10Z</time>
      </trkpt>
      <trkpt lat="45.88703" lon="4.06094">
        <ele>432</ele>
        <time>2021-08-27T11:33:42Z</time>
      </trkpt>
      <trkpt lat="45.88733" lon="4.05944">
        <ele>437</ele>
        <time>2021-08-27T11:36:07Z</time>
      </trkpt>
      <trkpt lat="45.88825" lon="4.05678">
        <ele>434</ele>
        <time>2021-08-27T11:40:42Z</time>
      </trkpt>
      <trkpt lat="45.88825" lon="4.05626">
        <ele>431</ele>
        <time>2021-08-27T11:41:31Z</time>
      </trkpt>
      <trkpt lat="45.88819" lon="4.05545">
        <ele>430</ele>
        <time>2021-08-27T11:42:46Z</time>
      </trkpt>
      <trkpt lat="45.88801" lon="4.0548">
        <ele>429</ele>
        <time>2021-08-27T11:43:51Z</time>
      </trkpt>
      <trkpt lat="45.88825" lon="4.05459">
        <ele>431</ele>
        <time>2021-08-27T11:44:29Z</time>
      </trkpt>
      <trkpt lat="45.88945" lon="4.05455">
        <ele>438</ele>
        <time>2021-08-27T11:47:09Z</time>
      </trkpt>
      <trkpt lat="45.89118" lon="4.0518">
        <ele>452</ele>
        <time>2021-08-27T11:52:53Z</time>
      </trkpt>
      <trkpt lat="45.89145" lon="4.0506">
        <ele>463</ele>
        <time>2021-08-27T11:54:50Z</time>
      </trkpt>
      <trkpt lat="45.89151" lon="4.04931">
        <ele>472</ele>
        <time>2021-08-27T11:56:51Z</time>
      </trkpt>
      <trkpt lat="45.89175" lon="4.04828">
        <ele>477</ele>
        <time>2021-08-27T11:58:31Z</time>
      </trkpt>
      <trkpt lat="45.89315" lon="4.04549">
        <ele>474</ele>
        <time>2021-08-27T12:03:51Z</time>
      </trkpt>
      <trkpt lat="45.89378" lon="4.04416">
        <ele>475</ele>
        <time>2021-08-27T12:06:20Z</time>
      </trkpt>
      <trkpt lat="45.89461" lon="4.04154">
        <ele>477</ele>
        <time>2021-08-27T12:10:48Z</time>
      </trkpt>
      <trkpt lat="45.89524" lon="4.04026">
        <ele>477</ele>
        <time>2021-08-27T12:13:13Z</time>
      </trkpt>
      <trkpt lat="45.89599" lon="4.03871">
        <ele>481</ele>
        <time>2021-08-27T12:16:09Z</time>
      </trkpt>
      <trkpt lat="45.89644" lon="4.03682">
        <ele>487</ele>
        <time>2021-08-27T12:19:14Z</time>
      </trkpt>
      <trkpt lat="45.89733" lon="4.03472">
        <ele>495</ele>
        <time>2021-08-27T12:23:02Z</time>
      </trkpt>
      <trkpt lat="45.89847" lon="4.03283">
        <ele>498</ele>
        <time>2021-08-27T12:26:55Z</time>
      </trkpt>
      <trkpt lat="45.89912" lon="4.03219">
        <ele>501</ele>
        <time>2021-08-27T12:28:40Z</time>
      </trkpt>
      <trkpt lat="45.90047" lon="4.03073">
        <ele>503</ele>
        <time>2021-08-27T12:32:25Z</time>
      </trkpt>
      <trkpt lat="45.90187" lon="4.02957">
        <ele>510</ele>
        <time>2021-08-27T12:36:01Z</time>
      </trkpt>
      <trkpt lat="45.90244" lon="4.02854">
        <ele>518</ele>
        <time>2021-08-27T12:38:03Z</time>
      </trkpt>
      <trkpt lat="45.90277" lon="4.02764">
        <ele>523</ele>
        <time>2021-08-27T12:39:38Z</time>
      </trkpt>
      <trkpt lat="45.90277" lon="4.02721">
        <ele>525</ele>
        <time>2021-08-27T12:40:18Z</time>
      </trkpt>
      <trkpt lat="45.9019" lon="4.02566">
        <ele>520</ele>
        <time>2021-08-27T12:43:23Z</time>
      </trkpt>
      <trkpt lat="45.90265" lon="4.02541">
        <ele>527</ele>
        <time>2021-08-27T12:45:05Z</time>
      </trkpt>
      <trkpt lat="45.90319" lon="4.02502">
        <ele>532</ele>
        <time>2021-08-27T12:46:26Z</time>
      </trkpt>
      <trkpt lat="45.90396" lon="4.02498">
        <ele>538</ele>
        <time>2021-08-27T12:48:09Z</time>
      </trkpt>
      <trkpt lat="45.90587" lon="4.02309">
        <ele>551</ele>
        <time>2021-08-27T12:53:18Z</time>
      </trkpt>
      <trkpt lat="45.90644" lon="4.02262">
        <ele>552</ele>
        <time>2021-08-27T12:54:46Z</time>
      </trkpt>
      <trkpt lat="45.90773" lon="4.02236">
        <ele>555</ele>
        <time>2021-08-27T12:57:40Z</time>
      </trkpt>
      <trkpt lat="45.90967" lon="4.02206">
        <ele>560</ele>
        <time>2021-08-27T13:02:00Z</time>
      </trkpt>
      <trkpt lat="45.9108" lon="4.02154">
        <ele>561</ele>
        <time>2021-08-27T13:04:38Z</time>
      </trkpt>
      <trkpt lat="45.91217" lon="4.02047">
        <ele>565</ele>
        <time>2021-08-27T13:08:07Z</time>
      </trkpt>
      <trkpt lat="45.91319" lon="4.01966">
        <ele>564</ele>
        <time>2021-08-27T13:10:42Z</time>
      </trkpt>
      <trkpt lat="45.91462" lon="4.01811">
        <ele>565</ele>
        <time>2021-08-27T13:14:41Z</time>
      </trkpt>
      <trkpt lat="45.9148" lon="4.01794">
        <ele>565</ele>
        <time>2021-08-27T13:15:10Z</time>
      </trkpt>
      <trkpt lat="45.9151" lon="4.01742">
        <ele>565</ele>
        <time>2021-08-27T13:16:13Z</time>
      </trkpt>
      <trkpt lat="45.91582" lon="4.01687">
        <ele>561</ele>
        <time>2021-08-27T13:18:01Z</time>
      </trkpt>
      <trkpt lat="45.91629" lon="4.01644">
        <ele>559</ele>
        <time>2021-08-27T13:19:16Z</time>
      </trkpt>
      <trkpt lat="45.91686" lon="4.01562">
        <ele>561</ele>
        <time>2021-08-27T13:21:03Z</time>
      </trkpt>
      <trkpt lat="45.91743" lon="4.01584">
        <ele>559</ele>
        <time>2021-08-27T13:22:22Z</time>
      </trkpt>
      <trkpt lat="45.91794" lon="4.01635">
        <ele>546</ele>
        <time>2021-08-27T13:23:45Z</time>
      </trkpt>
      <trkpt lat="45.91919" lon="4.01609">
        <ele>533</ele>
        <time>2021-08-27T13:26:34Z</time>
      </trkpt>
      <trkpt lat="45.92101" lon="4.01631">
        <ele>524</ele>
        <time>2021-08-27T13:30:37Z</time>
      </trkpt>
      <trkpt lat="45.92128" lon="4.01661">
        <ele>522</ele>
        <time>2021-08-27T13:31:23Z</time>
      </trkpt>
      <trkpt lat="45.92289" lon="4.01712">
        <ele>488</ele>
        <time>2021-08-27T13:35:03Z</time>
      </trkpt>
      <trkpt lat="45.92379" lon="4.01751">
        <ele>469</ele>
        <time>2021-08-27T13:37:08Z</time>
      </trkpt>
      <trkpt lat="45.92483" lon="4.01828">
        <ele>449</ele>
        <time>2021-08-27T13:39:44Z</time>
      </trkpt>
      <trkpt lat="45.92561" lon="4.01884">
        <ele>438</ele>
        <time>2021-08-27T13:41:41Z</time>
      </trkpt>
      <trkpt lat="45.92686" lon="4.0188">
        <ele>426</ele>
        <time>2021-08-27T13:44:28Z</time>
      </trkpt>
      <trkpt lat="45.92758" lon="4.01918">
        <ele>419</ele>
        <time>2021-08-27T13:46:10Z</time>
      </trkpt>
      <trkpt lat="45.92833" lon="4.01944">
        <ele>413</ele>
        <time>2021-08-27T13:47:53Z</time>
      </trkpt>
      <trkpt lat="45.92922" lon="4.01927">
        <ele>404</ele>
        <time>2021-08-27T13:49:53Z</time>
      </trkpt>
      <trkpt lat="45.93006" lon="4.01953">
        <ele>402</ele>
        <time>2021-08-27T13:51:47Z</time>
      </trkpt>
      <trkpt lat="45.93024" lon="4.01974">
        <ele>403</ele>
        <time>2021-08-27T13:52:18Z</time>
      </trkpt>
      <trkpt lat="45.93006" lon="4.02047">
        <ele>399</ele>
        <time>2021-08-27T13:53:30Z</time>
      </trkpt>
      <trkpt lat="45.93021" lon="4.02099">
        <ele>395</ele>
        <time>2021-08-27T13:54:22Z</time>
      </trkpt>
      <trkpt lat="45.9305" lon="4.02245">
        <ele>381</ele>
        <time>2021-08-27T13:56:43Z</time>
      </trkpt>
      <trkpt lat="45.93104" lon="4.0236">
        <ele>367</ele>
        <time>2021-08-27T13:58:52Z</time>
      </trkpt>
      <trkpt lat="45.9314" lon="4.02459">
        <ele>356</ele>
        <time>2021-08-27T14:00:36Z</time>
      </trkpt>
      <trkpt lat="45.93173" lon="4.02584">
        <ele>336</ele>
        <time>2021-08-27T14:02:40Z</time>
      </trkpt>
      <trkpt lat="45.93152" lon="4.02609">
        <ele>339</ele>
        <time>2021-08-27T14:03:16Z</time>
      </trkpt>
      <trkpt lat="45.93131" lon="4.02648">
        <ele>342</ele>
        <time>2021-08-27T14:04:02Z</time>
      </trkpt>
      <trkpt lat="45.93131" lon="4.02721">
        <ele>335</ele>
        <time>2021-08-27T14:05:10Z</time>
      </trkpt>
      <trkpt lat="45.93119" lon="4.02824">
        <ele>333</ele>
        <time>2021-08-27T14:06:47Z</time>
      </trkpt>
      <trkpt lat="45.93116" lon="4.02905">
        <ele>328</ele>
        <time>2021-08-27T14:08:02Z</time>
      </trkpt>
      <trkpt lat="45.93104" lon="4.02987">
        <ele>332</ele>
        <time>2021-08-27T14:09:20Z</time>
      </trkpt>
      <trkpt lat="45.93107" lon="4.02974">
        <ele>331</ele>
        <time>2021-08-27T14:09:32Z</time>
      </trkpt>
      <trkpt lat="45.9311" lon="4.03017">
        <ele>333</ele>
        <time>2021-08-27T14:10:13Z</time>
      </trkpt>
      <trkpt lat="45.93092" lon="4.03">
        <ele>336</ele>
        <time>2021-08-27T14:10:41Z</time>
      </trkpt>
      <trkpt lat="45.93113" lon="4.03116">
        <ele>339</ele>
        <time>2021-08-27T14:12:33Z</time>
      </trkpt>
      <trkpt lat="45.9314" lon="4.0324">
        <ele>328</ele>
        <time>2021-08-27T14:14:33Z</time>
      </trkpt>
      <trkpt lat="45.9314" lon="4.03266">
        <ele>327</ele>
        <time>2021-08-27T14:14:57Z</time>
      </trkpt>
      <trkpt lat="45.9311" lon="4.03296">
        <ele>330</ele>
        <time>2021-08-27T14:15:46Z</time>
      </trkpt>
      <trkpt lat="45.93074" lon="4.03287">
        <ele>338</ele>
        <time>2021-08-27T14:16:35Z</time>
      </trkpt>
      <trkpt lat="45.93021" lon="4.03317">
        <ele>341</ele>
        <time>2021-08-27T14:17:51Z</time>
      </trkpt>
      <trkpt lat="45.93036" lon="4.03369">
        <ele>337</ele>
        <time>2021-08-27T14:18:43Z</time>
      </trkpt>
      <trkpt lat="45.93086" lon="4.03395">
        <ele>322</ele>
        <time>2021-08-27T14:19:54Z</time>
      </trkpt>
      <trkpt lat="45.93053" lon="4.03468">
        <ele>327</ele>
        <time>2021-08-27T14:21:15Z</time>
      </trkpt>
      <trkpt lat="45.92925" lon="4.03566">
        <ele>333</ele>
        <time>2021-08-27T14:24:28Z</time>
      </trkpt>
      <trkpt lat="45.92892" lon="4.03553">
        <ele>341</ele>
        <time>2021-08-27T14:25:14Z</time>
      </trkpt>
      <trkpt lat="45.92791" lon="4.03639">
        <ele>332</ele>
        <time>2021-08-27T14:27:51Z</time>
      </trkpt>
      <trkpt lat="45.92704" lon="4.03695">
        <ele>331</ele>
        <time>2021-08-27T14:29:58Z</time>
      </trkpt>
      <trkpt lat="45.92659" lon="4.03734">
        <ele>329</ele>
        <time>2021-08-27T14:31:08Z</time>
      </trkpt>
      <trkpt lat="45.92603" lon="4.03777">
        <ele>327</ele>
        <time>2021-08-27T14:32:33Z</time>
      </trkpt>
      <trkpt lat="45.92576" lon="4.03781">
        <ele>328</ele>
        <time>2021-08-27T14:33:09Z</time>
      </trkpt>
      <trkpt lat="45.92513" lon="4.03768">
        <ele>333</ele>
        <time>2021-08-27T14:34:34Z</time>
      </trkpt>
      <trkpt lat="45.92486" lon="4.03742">
        <ele>341</ele>
        <time>2021-08-27T14:35:17Z</time>
      </trkpt>
      <trkpt lat="45.92465" lon="4.03845">
        <ele>327</ele>
        <time>2021-08-27T14:36:57Z</time>
      </trkpt>
      <trkpt lat="45.92391" lon="4.03888">
        <ele>334</ele>
        <time>2021-08-27T14:38:43Z</time>
      </trkpt>
      <trkpt lat="45.92328" lon="4.03948">
        <ele>338</ele>
        <time>2021-08-27T14:40:24Z</time>
      </trkpt>
      <trkpt lat="45.9228" lon="4.03974">
        <ele>340</ele>
        <time>2021-08-27T14:41:33Z</time>
      </trkpt>
      <trkpt lat="45.92233" lon="4.04017">
        <ele>339</ele>
        <time>2021-08-27T14:42:47Z</time>
      </trkpt>
      <trkpt lat="45.922" lon="4.0406">
        <ele>339</ele>
        <time>2021-08-27T14:43:46Z</time>
      </trkpt>
      <trkpt lat="45.92143" lon="4.04047">
        <ele>343</ele>
        <time>2021-08-27T14:45:04Z</time>
      </trkpt>
      <trkpt lat="45.92104" lon="4.03961">
        <ele>352</ele>
        <time>2021-08-27T14:46:39Z</time>
      </trkpt>
      <trkpt lat="45.92089" lon="4.04034">
        <ele>344</ele>
        <time>2021-08-27T14:47:49Z</time>
      </trkpt>
      <trkpt lat="45.92065" lon="4.04064">
        <ele>343</ele>
        <time>2021-08-27T14:48:32Z</time>
      </trkpt>
      <trkpt lat="45.91964" lon="4.04077">
        <ele>351</ele>
        <time>2021-08-27T14:50:47Z</time>
      </trkpt>
      <trkpt lat="45.91982" lon="4.04141">
        <ele>348</ele>
        <time>2021-08-27T14:51:51Z</time>
      </trkpt>
      <trkpt lat="45.91982" lon="4.04214">
        <ele>347</ele>
        <time>2021-08-27T14:52:59Z</time>
      </trkpt>
      <trkpt lat="45.91922" lon="4.04214">
        <ele>351</ele>
        <time>2021-08-27T14:54:19Z</time>
      </trkpt>
      <trkpt lat="45.91901" lon="4.04283">
        <ele>353</ele>
        <time>2021-08-27T14:55:29Z</time>
      </trkpt>
      <trkpt lat="45.91907" lon="4.04369">
        <ele>350</ele>
        <time>2021-08-27T14:56:49Z</time>
      </trkpt>
      <trkpt lat="45.91847" lon="4.04386">
        <ele>357</ele>
        <time>2021-08-27T14:58:11Z</time>
      </trkpt>
      <trkpt lat="45.91791" lon="4.04352">
        <ele>362</ele>
        <time>2021-08-27T14:59:32Z</time>
      </trkpt>
      <trkpt lat="45.91716" lon="4.04347">
        <ele>369</ele>
        <time>2021-08-27T15:01:12Z</time>
      </trkpt>
      <trkpt lat="45.91725" lon="4.04412">
        <ele>370</ele>
        <time>2021-08-27T15:02:14Z</time>
      </trkpt>
      <trkpt lat="45.9174" lon="4.04506">
        <ele>373</ele>
        <time>2021-08-27T15:03:43Z</time>
      </trkpt>
      <trkpt lat="45.91743" lon="4.04579">
        <ele>377</ele>
        <time>2021-08-27T15:04:51Z</time>
      </trkpt>
      <trkpt lat="45.91821" lon="4.04583">
        <ele>367</ele>
        <time>2021-08-27T15:06:35Z</time>
      </trkpt>
      <trkpt lat="45.91931" lon="4.04626">
        <ele>359</ele>
        <time>2021-08-27T15:09:07Z</time>
      </trkpt>
      <trkpt lat="45.91913" lon="4.04686">
        <ele>361</ele>
        <time>2021-08-27T15:10:08Z</time>
      </trkpt>
      <trkpt lat="45.91877" lon="4.04759">
        <ele>356</ele>
        <time>2021-08-27T15:11:31Z</time>
      </trkpt>
      <trkpt lat="45.91838" lon="4.04785">
        <ele>355</ele>
        <time>2021-08-27T15:12:29Z</time>
      </trkpt>
      <trkpt lat="45.91773" lon="4.04794">
        <ele>362</ele>
        <time>2021-08-27T15:13:56Z</time>
      </trkpt>
      <trkpt lat="45.91725" lon="4.04828">
        <ele>361</ele>
        <time>2021-08-27T15:15:07Z</time>
      </trkpt>
      <trkpt lat="45.91624" lon="4.04832">
        <ele>369</ele>
        <time>2021-08-27T15:17:22Z</time>
      </trkpt>
      <trkpt lat="45.91674" lon="4.04914">
        <ele>363</ele>
        <time>2021-08-27T15:19:03Z</time>
      </trkpt>
      <trkpt lat="45.91621" lon="4.0506">
        <ele>365</ele>
        <time>2021-08-27T15:21:36Z</time>
      </trkpt>
      <trkpt lat="45.91579" lon="4.0512">
        <ele>368</ele>
        <time>2021-08-27T15:22:55Z</time>
      </trkpt>
      <trkpt lat="45.91612" lon="4.04953">
        <ele>374</ele>
        <time>2021-08-27T15:25:36Z</time>
      </trkpt>
      <trkpt lat="45.91429" lon="4.04931">
        <ele>400</ele>
        <time>2021-08-27T15:29:41Z</time>
      </trkpt>
      <trkpt lat="45.91238" lon="4.04789">
        <ele>434</ele>
        <time>2021-08-27T15:34:28Z</time>
      </trkpt>
      <trkpt lat="45.91194" lon="4.04772">
        <ele>440</ele>
        <time>2021-08-27T15:35:29Z</time>
      </trkpt>
      <trkpt lat="45.91173" lon="4.04772">
        <ele>442</ele>
        <time>2021-08-27T15:35:57Z</time>
      </trkpt>
      <trkpt lat="45.91092" lon="4.04648">
        <ele>461</ele>
        <time>2021-08-27T15:38:35Z</time>
      </trkpt>
      <trkpt lat="45.91068" lon="4.04764">
        <ele>458</ele>
        <time>2021-08-27T15:40:27Z</time>
      </trkpt>
      <trkpt lat="45.91032" lon="4.04789">
        <ele>454</ele>
        <time>2021-08-27T15:41:21Z</time>
      </trkpt>
      <trkpt lat="45.90925" lon="4.04854">
        <ele>440</ele>
        <time>2021-08-27T15:43:56Z</time>
      </trkpt>
      <trkpt lat="45.90865" lon="4.0491">
        <ele>425</ele>
        <time>2021-08-27T15:45:31Z</time>
      </trkpt>
      <trkpt lat="45.90811" lon="4.04927">
        <ele>421</ele>
        <time>2021-08-27T15:46:45Z</time>
      </trkpt>
      <trkpt lat="45.90784" lon="4.04961">
        <ele>417</ele>
        <time>2021-08-27T15:47:33Z</time>
      </trkpt>
      <trkpt lat="45.90761" lon="4.05034">
        <ele>405</ele>
        <time>2021-08-27T15:48:47Z</time>
      </trkpt>
      <trkpt lat="45.90719" lon="4.05116">
        <ele>399</ele>
        <time>2021-08-27T15:50:22Z</time>
      </trkpt>
      <trkpt lat="45.90716" lon="4.05231">
        <ele>385</ele>
        <time>2021-08-27T15:52:09Z</time>
      </trkpt>
      <trkpt lat="45.90695" lon="4.05347">
        <ele>377</ele>
        <time>2021-08-27T15:54:00Z</time>
      </trkpt>
      <trkpt lat="45.90701" lon="4.05382">
        <ele>370</ele>
        <time>2021-08-27T15:54:33Z</time>
      </trkpt>
      <trkpt lat="45.90668" lon="4.05515">
        <ele>364</ele>
        <time>2021-08-27T15:56:45Z</time>
      </trkpt>
      <trkpt lat="45.90689" lon="4.05691">
        <ele>336</ele>
        <time>2021-08-27T15:59:30Z</time>
      </trkpt>
      <trkpt lat="45.90689" lon="4.05729">
        <ele>339</ele>
        <time>2021-08-27T16:00:06Z</time>
      </trkpt>
      <trkpt lat="45.90773" lon="4.05794">
        <ele>327</ele>
        <time>2021-08-27T16:02:13Z</time>
      </trkpt>
      <trkpt lat="45.90817" lon="4.05892">
        <ele>325</ele>
        <time>2021-08-27T16:04:01Z</time>
      </trkpt>
      <trkpt lat="45.90859" lon="4.05983">
        <ele>322</ele>
        <time>2021-08-27T16:05:43Z</time>
      </trkpt>
      <trkpt lat="45.90955" lon="4.06047">
        <ele>317</ele>
        <time>2021-08-27T16:08:04Z</time>
      </trkpt>
      <trkpt lat="45.90991" lon="4.06085">
        <ele>316</ele>
        <time>2021-08-27T16:09:04Z</time>
      </trkpt>
      <trkpt lat="45.9105" lon="4.06128">
        <ele>315</ele>
        <time>2021-08-27T16:10:32Z</time>
      </trkpt>
      <trkpt lat="45.91068" lon="4.06163">
        <ele>315</ele>
        <time>2021-08-27T16:11:12Z</time>
      </trkpt>
      <trkpt lat="45.91071" lon="4.06249">
        <ele>318</ele>
        <time>2021-08-27T16:12:32Z</time>
      </trkpt>
      <trkpt lat="45.91044" lon="4.06313">
        <ele>321</ele>
        <time>2021-08-27T16:13:42Z</time>
      </trkpt>
      <trkpt lat="45.90991" lon="4.06369">
        <ele>324</ele>
        <time>2021-08-27T16:15:09Z</time>
      </trkpt>
      <trkpt lat="45.91002" lon="4.06416">
        <ele>323</ele>
        <time>2021-08-27T16:15:55Z</time>
      </trkpt>
      <trkpt lat="45.91062" lon="4.06416">
        <ele>324</ele>
        <time>2021-08-27T16:17:16Z</time>
      </trkpt>
      <trkpt lat="45.91095" lon="4.06455">
        <ele>329</ele>
        <time>2021-08-27T16:18:13Z</time>
      </trkpt>
      <trkpt lat="45.91158" lon="4.06643">
        <ele>340</ele>
        <time>2021-08-27T16:21:26Z</time>
      </trkpt>
      <trkpt lat="45.91128" lon="4.06819">
        <ele>349</ele>
        <time>2021-08-27T16:24:15Z</time>
      </trkpt>
      <trkpt lat="45.91092" lon="4.06922">
        <ele>360</ele>
        <time>2021-08-27T16:26:02Z</time>
      </trkpt>
      <trkpt lat="45.91116" lon="4.07115">
        <ele>364</ele>
        <time>2021-08-27T16:29:04Z</time>
      </trkpt>
      <trkpt lat="45.91122" lon="4.07266">
        <ele>361</ele>
        <time>2021-08-27T16:31:24Z</time>
      </trkpt>
      <trkpt lat="45.91113" lon="4.07412">
        <ele>348</ele>
        <time>2021-08-27T16:33:40Z</time>
      </trkpt>
      <trkpt lat="45.91107" lon="4.07549">
        <ele>331</ele>
        <time>2021-08-27T16:35:48Z</time>
      </trkpt>
      <trkpt lat="45.91059" lon="4.07639">
        <ele>334</ele>
        <time>2021-08-27T16:37:33Z</time>
      </trkpt>
      <trkpt lat="45.90994" lon="4.07678">
        <ele>348</ele>
        <time>2021-08-27T16:39:07Z</time>
      </trkpt>
      <trkpt lat="45.91005" lon="4.07781">
        <ele>336</ele>
        <time>2021-08-27T16:40:44Z</time>
      </trkpt>
      <trkpt lat="45.9097" lon="4.07944">
        <ele>341</ele>
        <time>2021-08-27T16:43:22Z</time>
      </trkpt>
      <trkpt lat="45.90892" lon="4.08098">
        <ele>346</ele>
        <time>2021-08-27T16:46:19Z</time>
      </trkpt>
      <trkpt lat="45.90835" lon="4.08248">
        <ele>333</ele>
        <time>2021-08-27T16:48:58Z</time>
      </trkpt>
      <trkpt lat="45.90787" lon="4.08291">
        <ele>337</ele>
        <time>2021-08-27T16:50:13Z</time>
      </trkpt>
      <trkpt lat="45.90692" lon="4.0821">
        <ele>368</ele>
        <time>2021-08-27T16:52:40Z</time>
      </trkpt>
      <trkpt lat="45.90626" lon="4.08158">
        <ele>385</ele>
        <time>2021-08-27T16:54:21Z</time>
      </trkpt>
      <trkpt lat="45.90587" lon="4.08008">
        <ele>401</ele>
        <time>2021-08-27T16:56:50Z</time>
      </trkpt>
      <trkpt lat="45.90569" lon="4.08025">
        <ele>403</ele>
        <time>2021-08-27T16:57:18Z</time>
      </trkpt>
      <trkpt lat="45.90546" lon="4.08133">
        <ele>403</ele>
        <time>2021-08-27T16:59:03Z</time>
      </trkpt>
      <trkpt lat="45.90528" lon="4.0827">
        <ele>406</ele>
        <time>2021-08-27T17:01:13Z</time>
      </trkpt>
      <trkpt lat="45.90498" lon="4.08287">
        <ele>411</ele>
        <time>2021-08-27T17:01:56Z</time>
      </trkpt>
      <trkpt lat="45.90471" lon="4.08274">
        <ele>414</ele>
        <time>2021-08-27T17:02:34Z</time>
      </trkpt>
      <trkpt lat="45.90444" lon="4.08253">
        <ele>419</ele>
        <time>2021-08-27T17:03:15Z</time>
      </trkpt>
      <trkpt lat="45.90396" lon="4.08223">
        <ele>424</ele>
        <time>2021-08-27T17:04:25Z</time>
      </trkpt>
      <trkpt lat="45.90268" lon="4.0806">
        <ele>445</ele>
        <time>2021-08-27T17:08:13Z</time>
      </trkpt>
      <trkpt lat="45.90196" lon="4.08">
        <ele>455</ele>
        <time>2021-08-27T17:10:04Z</time>
      </trkpt>
      <trkpt lat="45.90157" lon="4.08017">
        <ele>456</ele>
        <time>2021-08-27T17:10:58Z</time>
      </trkpt>
      <trkpt lat="45.90119" lon="4.0803">
        <ele>455</ele>
        <time>2021-08-27T17:11:50Z</time>
      </trkpt>
      <trkpt lat="45.90053" lon="4.08012">
        <ele>457</ele>
        <time>2021-08-27T17:13:20Z</time>
      </trkpt>
      <trkpt lat="45.90005" lon="4.08042">
        <ele>455</ele>
        <time>2021-08-27T17:14:30Z</time>
      </trkpt>
      <trkpt lat="45.8988" lon="4.08038">
        <ele>453</ele>
        <time>2021-08-27T17:17:17Z</time>
      </trkpt>
      <trkpt lat="45.8985" lon="4.07991">
        <ele>456</ele>
        <time>2021-08-27T17:18:16Z</time>
      </trkpt>
      <trkpt lat="45.89778" lon="4.08004">
        <ele>455</ele>
        <time>2021-08-27T17:19:53Z</time>
      </trkpt>
      <trkpt lat="45.89712" lon="4.07995">
        <ele>455</ele>
        <time>2021-08-27T17:21:21Z</time>
      </trkpt>
      <trkpt lat="45.89623" lon="4.07944">
        <ele>456</ele>
        <time>2021-08-27T17:23:29Z</time>
      </trkpt>
      <trkpt lat="45.89596" lon="4.07982">
        <ele>453</ele>
        <time>2021-08-27T17:24:20Z</time>
      </trkpt>
      <trkpt lat="45.89479" lon="4.08068">
        <ele>450</ele>
        <time>2021-08-27T17:27:15Z</time>
      </trkpt>
      <trkpt lat="45.89411" lon="4.08124">
        <ele>449</ele>
        <time>2021-08-27T17:29:00Z</time>
      </trkpt>
      <trkpt lat="45.89366" lon="4.08141">
        <ele>448</ele>
        <time>2021-08-27T17:30:02Z</time>
      </trkpt>
      <trkpt lat="45.89321" lon="4.08304">
        <ele>443</ele>
        <time>2021-08-27T17:32:44Z</time>
      </trkpt>
      <trkpt lat="45.89223" lon="4.08446">
        <ele>438</ele>
        <time>2021-08-27T17:35:50Z</time>
      </trkpt>
      <trkpt lat="45.89163" lon="4.08587">
        <ele>439</ele>
        <time>2021-08-27T17:38:24Z</time>
      </trkpt>
      <trkpt lat="45.89109" lon="4.08708">
        <ele>436</ele>
        <time>2021-08-27T17:40:37Z</time>
      </trkpt>
      <trkpt lat="45.89052" lon="4.08793">
        <ele>436</ele>
        <time>2021-08-27T17:42:27Z</time>
      </trkpt>
      <trkpt lat="45.88996" lon="4.08866">
        <ele>436</ele>
        <time>2021-08-27T17:44:08Z</time>
      </trkpt>
      <trkpt lat="45.88942" lon="4.08918">
        <ele>435</ele>
        <time>2021-08-27T17:45:34Z</time>
      </trkpt>
      <trkpt lat="45.88873" lon="4.08944">
        <ele>432</ele>
        <time>2021-08-27T17:47:10Z</time>
      </trkpt>
      <trkpt lat="45.8878" lon="4.08957">
        <ele>430</ele>
        <time>2021-08-27T17:49:14Z</time>
      </trkpt>
      <trkpt lat="45.88783" lon="4.08884">
        <ele>429</ele>
        <time>2021-08-27T17:50:22Z</time>
      </trkpt>
      <trkpt lat="45.88795" lon="4.08793">
        <ele>427</ele>
        <time>2021-08-27T17:51:48Z</time>
      </trkpt>
      <trkpt lat="45.88766" lon="4.08738">
        <ele>424</ele>
        <time>2021-08-27T17:52:52Z</time>
      </trkpt>
      <trkpt lat="45.88724" lon="4.08686">
        <ele>424</ele>
        <time>2021-08-27T17:54:06Z</time>
      </trkpt>
      <trkpt lat="45.88703" lon="4.08686">
        <ele>423</ele>
        <time>2021-08-27T17:54:34Z</time>
      </trkpt>
      <trkpt lat="45.88628" lon="4.08635">
        <ele>423</ele>
        <time>2021-08-27T17:56:25Z</time>
      </trkpt>
      <trkpt lat="45.88574" lon="4.08579">
        <ele>425</ele>
        <time>2021-08-27T17:57:54Z</time>
      </trkpt>
      <trkpt lat="45.8853" lon="4.0854">
        <ele>426</ele>
        <time>2021-08-27T17:59:03Z</time>
      </trkpt>
      <trkpt lat="45.88524" lon="4.08506">
        <ele>427</ele>
        <time>2021-08-27T17:59:36Z</time>
      </trkpt>
      <trkpt lat="45.88509" lon="4.08484">
        <ele>427</ele>
        <time>2021-08-27T18:00:04Z</time>
      </trkpt>
      <trkpt lat="45.88434" lon="4.08493">
        <ele>423</ele>
        <time>2021-08-27T18:01:45Z</time>
      </trkpt>
    </trkseg>
  </trk>
</gpx>